<?xml version="1.0" encoding="UTF-8" standalone="no" ?>
<gpx xmlns="http://www.topografix.com/GPX/1/1" xmlns:xsi="http://www.w3.org/2001/XMLSchema-instance" xsi:schemaLocation="http://www.topografix.com/GPX/1/1 http://www.topografix.com/GPX/1/1/gpx.xsd" version="1.1" creator="VisuGPX - https://www.visugpx.com">
  <metadata>
    <name>ChailléOrmeaux_Boucles_19km</name>
    <desc><![CDATA[gnerando idor:6553433_6553489_6956451_7846715_7847315_8111388_8144845]]></desc>
  </metadata>
  <trk>
    <name><![CDATA[ChailléOrmeaux_Orme_4,7km-6553503]]></name>
    <extensions>
      <line xmlns="http://www.topografix.com/GPX/gpx_style/0/2">
        <color>008800</color>
        <width>4</width>
      </line>
    </extensions>
    <trkseg>
      <trkpt lat="46.54643" lon="-1.33887">
        <ele>22</ele>
        <time>2023-11-12T06:21:18Z</time>
      </trkpt>
      <trkpt lat="46.54573" lon="-1.33896">
        <ele>31</ele>
        <time>2023-11-12T06:22:52Z</time>
      </trkpt>
      <trkpt lat="46.54537" lon="-1.33835">
        <ele>34</ele>
        <time>2023-11-12T06:24:06Z</time>
      </trkpt>
      <trkpt lat="46.54475" lon="-1.33853">
        <ele>37</ele>
        <time>2023-11-12T06:25:30Z</time>
      </trkpt>
      <trkpt lat="46.54422" lon="-1.33814">
        <ele>34</ele>
        <time>2023-11-12T06:26:49Z</time>
      </trkpt>
      <trkpt lat="46.54384" lon="-1.33994">
        <ele>37</ele>
        <time>2023-11-12T06:29:42Z</time>
      </trkpt>
      <trkpt lat="46.54348" lon="-1.33947">
        <ele>37</ele>
        <time>2023-11-12T06:30:47Z</time>
      </trkpt>
      <trkpt lat="46.54115" lon="-1.34157">
        <ele>43</ele>
        <time>2023-11-12T06:36:52Z</time>
      </trkpt>
      <trkpt lat="46.54074" lon="-1.34046">
        <ele>46</ele>
        <time>2023-11-12T06:38:48Z</time>
      </trkpt>
      <trkpt lat="46.53888" lon="-1.34003">
        <ele>53</ele>
        <time>2023-11-12T06:42:59Z</time>
      </trkpt>
      <trkpt lat="46.53734" lon="-1.33986">
        <ele>60</ele>
        <time>2023-11-12T06:46:25Z</time>
      </trkpt>
      <trkpt lat="46.53616" lon="-1.33891">
        <ele>58</ele>
        <time>2023-11-12T06:49:25Z</time>
      </trkpt>
      <trkpt lat="46.53569" lon="-1.34102">
        <ele>60</ele>
        <time>2023-11-12T06:52:49Z</time>
      </trkpt>
      <trkpt lat="46.53339" lon="-1.34119">
        <ele>37</ele>
        <time>2023-11-12T06:57:56Z</time>
      </trkpt>
      <trkpt lat="46.53291" lon="-1.34222">
        <ele>37</ele>
        <time>2023-11-12T06:59:51Z</time>
      </trkpt>
      <trkpt lat="46.53238" lon="-1.3423">
        <ele>35</ele>
        <time>2023-11-12T07:01:02Z</time>
      </trkpt>
      <trkpt lat="46.53283" lon="-1.33943">
        <ele>37</ele>
        <time>2023-11-12T07:05:32Z</time>
      </trkpt>
      <trkpt lat="46.53244" lon="-1.33788">
        <ele>39</ele>
        <time>2023-11-12T07:08:03Z</time>
      </trkpt>
      <trkpt lat="46.53477" lon="-1.33565">
        <ele>24</ele>
        <time>2023-11-12T07:14:16Z</time>
      </trkpt>
      <trkpt lat="46.5353" lon="-1.33436">
        <ele>24</ele>
        <time>2023-11-12T07:16:34Z</time>
      </trkpt>
      <trkpt lat="46.53631" lon="-1.33462">
        <ele>18</ele>
        <time>2023-11-12T07:18:51Z</time>
      </trkpt>
      <trkpt lat="46.53737" lon="-1.33531">
        <ele>21</ele>
        <time>2023-11-12T07:21:26Z</time>
      </trkpt>
      <trkpt lat="46.53826" lon="-1.33496">
        <ele>19</ele>
        <time>2023-11-12T07:23:29Z</time>
      </trkpt>
      <trkpt lat="46.54047" lon="-1.3314">
        <ele>13</ele>
        <time>2023-11-12T07:30:49Z</time>
      </trkpt>
      <trkpt lat="46.54142" lon="-1.33175">
        <ele>16</ele>
        <time>2023-11-12T07:33:00Z</time>
      </trkpt>
      <trkpt lat="46.54201" lon="-1.33282">
        <ele>23</ele>
        <time>2023-11-12T07:35:05Z</time>
      </trkpt>
      <trkpt lat="46.54292" lon="-1.33351">
        <ele>28</ele>
        <time>2023-11-12T07:37:22Z</time>
      </trkpt>
      <trkpt lat="46.5436" lon="-1.33338">
        <ele>25</ele>
        <time>2023-11-12T07:38:54Z</time>
      </trkpt>
      <trkpt lat="46.54398" lon="-1.33557">
        <ele>38</ele>
        <time>2023-11-12T07:42:21Z</time>
      </trkpt>
      <trkpt lat="46.54463" lon="-1.33582">
        <ele>33</ele>
        <time>2023-11-12T07:43:51Z</time>
      </trkpt>
      <trkpt lat="46.5444" lon="-1.33651">
        <ele>36</ele>
        <time>2023-11-12T07:45:01Z</time>
      </trkpt>
      <trkpt lat="46.54484" lon="-1.33724">
        <ele>36</ele>
        <time>2023-11-12T07:46:30Z</time>
      </trkpt>
      <trkpt lat="46.5444" lon="-1.33848">
        <ele>35</ele>
        <time>2023-11-12T07:48:38Z</time>
      </trkpt>
      <trkpt lat="46.54555" lon="-1.33801">
        <ele>33</ele>
        <time>2023-11-12T07:51:18Z</time>
      </trkpt>
      <trkpt lat="46.54694" lon="-1.33904">
        <ele>20</ele>
        <time>2023-11-12T07:54:46Z</time>
      </trkpt>
    </trkseg>
  </trk>
</gpx>